Terminal Aerodrome Forecast
Issued by NWS

Home | Current Version | Previous Version | Text Only | Print | Product List | Glossary On
Versions: 1 2 3 4 5 6 7 8 9 10 11 12 13 14 15 16 17 18 19 20 21 22 23 24
827
FTUS45 KGGW 211725 AAA
TAFGDV
TAF AMD
KGDV 211725Z 2117/2218 24007KT P6SM FEW080 SCT130
     FM220000 26007KT 3SM BR FEW020 FEW110
     FM220400 27007KT 1SM BR FEW020 FEW040
     FM221100 26007KT P6SM BKN035
     FM221300 25007KT P6SM SCT015=

USA.gov is the U.S. government's official web portal to all federal, state and local government web resources and services.